Time;durP1;ratioP1;P1;durP2;ratioP2;P2;SDS_P1;SDS_P2;PMS_P1;PMS_P2;Temp;Humidity;BMP_temperature;BMP_pressure;BME280_temperature;BME280_humidity;BME280_pressure;Samples;Min_cycle;Max_cycle;Signal;HPM_P1;HPM_P2
2023/03/11 00:00:43;;;;;;;1.13;0.93;;;;;;;7.87;60.97;94955.97;5048349;28;20076;-52
2023/03/11 00:03:16;;;;;;;1.13;0.93;;;;;;;8.13;59.14;94958.44;5048130;28;20076;-50
2023/03/11 00:05:45;;;;;;;0.98;0.82;;;;;;;8.11;58.18;94966.44;5045584;28;20680;-50
2023/03/11 00:08:15;;;;;;;1.35;0.90;;;;;;;7.63;61.10;94989.09;5047589;28;20467;-50
2023/03/11 00:10:46;;;;;;;1.02;0.90;;;;;;;7.54;57.66;94992.72;5048455;28;20631;-49
2023/03/11 00:13:16;;;;;;;1.10;0.80;;;;;;;8.17;55.99;94992.03;5042998;28;20076;-50
2023/03/11 00:15:49;;;;;;;0.90;0.80;;;;;;;8.12;56.07;94980.41;5048460;28;20085;-47
2023/03/11 00:18:17;;;;;;;1.45;1.33;;;;;;;7.94;57.14;94986.63;5048475;28;20079;-51
2023/03/11 00:20:46;;;;;;;2.10;1.10;;;;;;;7.34;59.05;94955.47;5081177;28;20068;-46
2023/03/11 00:23:15;;;;;;;0.68;0.68;;;;;;;7.33;58.53;94969.56;5047236;28;20083;-51
2023/03/11 00:25:46;;;;;;;1.40;0.90;;;;;;;7.54;58.58;94976.97;5043276;28;20064;-53
2023/03/11 00:28:15;;;;;;;1.23;1.13;;;;;;;7.72;58.77;94982.88;5047882;28;20099;-51
2023/03/11 00:30:45;;;;;;;1.67;1.00;;;;;;;8.19;58.43;94976.13;5047667;28;20076;-48
2023/03/11 00:33:14;;;;;;;0.60;0.60;;;;;;;8.14;55.73;94978.44;5048627;28;20083;-52
2023/03/11 00:35:43;;;;;;;0.80;0.80;;;;;;;7.77;55.68;94987.63;5037120;28;20445;-50
2023/03/11 00:38:13;;;;;;;1.08;0.80;;;;;;;7.55;55.09;95007.47;5047729;28;20347;-47
2023/03/11 00:40:43;;;;;;;1.90;1.00;;;;;;;7.78;54.94;95018.97;5048344;28;20076;-51
2023/03/11 00:43:14;;;;;;;1.10;0.90;;;;;;;7.71;55.31;95030.25;5048253;28;20091;-50
2023/03/11 00:45:42;;;;;;;0.70;0.70;;;;;;;7.69;54.40;95003.38;5047148;28;20498;-52
2023/03/11 00:48:11;;;;;;;0.93;0.80;;;;;;;7.36;55.37;95024.28;5061816;28;20080;-49
2023/03/11 00:50:40;;;;;;;0.80;0.80;;;;;;;7.73;56.13;95023.06;5049445;28;20600;-50
2023/03/11 00:53:09;;;;;;;0.68;0.68;;;;;;;7.69;55.15;95019.13;5049449;28;20068;-49
2023/03/11 00:55:38;;;;;;;1.00;0.90;;;;;;;8.03;53.45;95024.22;5051585;28;20084;-47
2023/03/11 00:58:08;;;;;;;0.90;0.85;;;;;;;7.47;55.75;95025.81;5051738;28;20076;-49
2023/03/11 01:00:37;;;;;;;1.33;1.00;;;;;;;7.98;52.64;95014.22;5052352;28;20081;-52
2023/03/11 01:03:06;;;;;;;2.27;0.90;;;;;;;7.30;55.07;95041.50;5051336;28;20502;-47
2023/03/11 01:05:34;;;;;;;0.77;0.77;;;;;;;7.69;54.83;95027.00;5050904;28;20084;-48
2023/03/11 01:08:04;;;;;;;1.35;0.90;;;;;;;7.27;53.51;95018.22;5053090;28;20466;-47
2023/03/11 01:10:33;;;;;;;0.70;0.70;;;;;;;7.52;53.79;95005.97;5051954;28;20087;-47
2023/03/11 01:13:02;;;;;;;1.00;0.90;;;;;;;7.46;53.04;95003.16;5050765;28;20084;-50
2023/03/11 01:15:32;;;;;;;1.00;0.90;;;;;;;7.51;53.46;95019.25;5051472;28;20073;-52
2023/03/11 01:18:03;;;;;;;0.70;0.63;;;;;;;7.81;52.54;95007.31;5048961;28;20068;-48
2023/03/11 01:20:31;;;;;;;0.80;0.73;;;;;;;7.27;53.08;94968.41;5051100;28;20091;-51
2023/03/11 01:22:59;;;;;;;0.77;0.75;;;;;;;7.64;52.54;95011.75;5050710;28;20731;-47
2023/03/11 01:25:28;;;;;;;2.10;0.90;;;;;;;7.75;52.35;95005.34;5051400;28;20068;-47
2023/03/11 01:27:56;;;;;;;1.00;0.95;;;;;;;7.80;52.36;95003.84;5050810;28;20068;-52
2023/03/11 01:30:25;;;;;;;0.93;0.90;;;;;;;7.37;52.96;95031.19;5051662;28;20072;-52
2023/03/11 01:32:54;;;;;;;1.02;0.70;;;;;;;7.57;52.67;95034.31;5048836;28;20068;-46
2023/03/11 01:35:26;;;;;;;0.75;0.70;;;;;;;7.56;51.58;95036.13;5050226;28;20068;-51
2023/03/11 01:37:55;;;;;;;0.75;0.75;;;;;;;7.66;52.46;95056.97;5050396;28;20088;-54
2023/03/11 01:40:26;;;;;;;0.95;0.88;;;;;;;7.82;51.72;95051.75;5045278;28;20076;-47
2023/03/11 01:42:54;;;;;;;0.60;0.55;;;;;;;7.67;52.38;95045.50;5049583;28;20075;-45
2023/03/11 01:45:33;;;;;;;0.93;0.82;;;;;;;7.29;53.71;95075.72;5049498;28;20068;-50
2023/03/11 01:48:01;;;;;;;0.82;0.82;;;;;;;7.35;52.87;95054.94;5054187;28;20103;-51
2023/03/11 01:50:35;;;;;;;0.70;0.70;;;;;;;7.19;53.47;95070.63;5051091;28;20068;-48
2023/03/11 01:53:05;;;;;;;0.75;0.75;;;;;;;7.45;54.57;95064.47;5050771;28;20064;-51
2023/03/11 01:55:34;;;;;;;0.77;0.77;;;;;;;7.37;51.80;95063.47;5050025;28;20072;-50
2023/03/11 01:58:06;;;;;;;0.80;0.70;;;;;;;7.39;53.27;95081.66;5050626;28;20457;-53
2023/03/11 02:00:35;;;;;;;0.98;0.73;;;;;;;7.43;53.65;95066.44;5049031;28;20449;-47
2023/03/11 02:03:07;;;;;;;1.20;1.10;;;;;;;7.22;53.64;95064.22;5050290;28;20076;-48
2023/03/11 02:05:38;;;;;;;1.23;1.10;;;;;;;7.14;54.84;95067.66;5048803;28;20555;-49
2023/03/11 02:08:06;;;;;;;;;;;;;;;7.16;53.41;95067.47;5051104;28;20049;-50
2023/03/11 02:10:37;;;;;;;0.90;0.90;;;;;;;7.50;54.31;95078.75;5050298;28;19920;-48
2023/03/11 02:13:06;;;;;;;;;;;;;;;7.33;53.96;95069.22;5050652;28;20069;-47
2023/03/11 02:15:34;;;;;;;1.02;0.90;;;;;;;7.45;53.93;95067.91;5050528;28;19967;-48
2023/03/11 02:18:03;;;;;;;1.40;1.20;;;;;;;7.35;54.09;95067.22;5053165;28;20068;-48
2023/03/11 02:20:40;;;;;;;0.70;0.60;;;;;;;6.98;52.96;95047.41;5050021;28;20510;-48
2023/03/11 02:23:09;;;;;;;0.80;0.65;;;;;;;7.06;52.77;95063.19;5047181;28;20526;-47
2023/03/11 02:25:42;;;;;;;0.63;0.63;;;;;;;7.34;52.59;95076.91;5052832;28;20437;-48
2023/03/11 02:28:13;;;;;;;2.05;0.70;;;;;;;7.23;53.67;95077.19;5049716;28;20568;-48
2023/03/11 02:30:42;;;;;;;1.60;0.70;;;;;;;7.17;54.20;95077.81;5049940;28;21327;-53
2023/03/11 02:33:11;;;;;;;1.17;0.75;;;;;;;7.17;52.39;95069.97;5050556;28;20077;-47
2023/03/11 02:35:40;;;;;;;0.82;0.70;;;;;;;7.26;52.87;95076.88;5044635;28;20080;-49
2023/03/11 02:38:08;;;;;;;1.10;0.60;;;;;;;7.23;52.89;95077.19;5048425;28;20072;-48
2023/03/11 02:40:50;;;;;;;0.98;0.85;;;;;;;7.02;53.96;95089.84;5050020;28;20080;-46
2023/03/11 02:43:24;;;;;;;1.77;1.13;;;;;;;7.02;53.61;95082.84;5049061;28;20080;-47
2023/03/11 02:45:52;;;;;;;0.73;0.73;;;;;;;6.81;54.23;95078.00;5049060;28;20077;-49
2023/03/11 02:48:22;;;;;;;0.80;0.80;;;;;;;6.88;53.44;95076.38;5049673;28;20080;-50
2023/03/11 02:50:50;;;;;;;0.87;0.60;;;;;;;6.75;53.64;95073.38;5050167;28;20088;-52
2023/03/11 02:53:19;;;;;;;1.08;0.90;;;;;;;7.04;53.09;95086.09;5077188;28;20061;-46
2023/03/11 02:55:47;;;;;;;1.92;0.80;;;;;;;6.90;54.28;95077.03;5048498;28;20075;-48
2023/03/11 02:58:15;;;;;;;1.13;0.70;;;;;;;7.03;53.74;95083.66;5075687;28;20073;-48
2023/03/11 03:00:45;;;;;;;1.17;0.85;;;;;;;6.56;54.42;95087.47;5050406;28;20071;-49
2023/03/11 03:03:14;;;;;;;0.68;0.63;;;;;;;6.89;54.67;95095.53;5049158;28;20131;-51
2023/03/11 03:05:43;;;;;;;0.65;0.60;;;;;;;6.64;54.22;95091.94;5050056;28;20072;-51
2023/03/11 03:08:11;;;;;;;5.50;0.70;;;;;;;6.60;53.94;95072.28;5075093;28;20080;-52
2023/03/11 03:10:39;;;;;;;1.00;0.80;;;;;;;6.51;53.51;95094.97;5047970;28;20108;-49
2023/03/11 03:13:08;;;;;;;0.60;0.60;;;;;;;6.76;53.29;95105.63;5052164;28;20548;-47
2023/03/11 03:15:36;;;;;;;1.58;0.73;;;;;;;6.64;54.30;95100.66;5049375;28;20568;-47
2023/03/11 03:18:06;;;;;;;1.67;0.80;;;;;;;6.48;53.38;95103.16;5049549;28;20072;-50
2023/03/11 03:20:34;;;;;;;1.27;0.80;;;;;;;6.79;53.94;95107.94;5048799;28;20084;-49
2023/03/11 03:23:03;;;;;;;0.73;0.70;;;;;;;6.90;53.28;95103.25;5048870;28;20502;-49
2023/03/11 03:25:31;;;;;;;0.55;0.52;;;;;;;6.95;53.57;95118.50;5045950;28;20068;-50
2023/03/11 03:28:00;;;;;;;1.63;0.90;;;;;;;6.75;54.04;95107.41;5048866;28;20072;-54
2023/03/11 03:30:28;;;;;;;0.60;0.60;;;;;;;6.70;53.39;95106.22;5049567;28;20076;-46
2023/03/11 03:32:56;;;;;;;1.00;0.90;;;;;;;6.88;52.60;95112.22;5049067;28;20534;-48
2023/03/11 03:35:26;;;;;;;0.80;0.80;;;;;;;6.78;53.28;95107.13;5048031;28;20080;-48
2023/03/11 03:37:55;;;;;;;0.73;0.70;;;;;;;6.72;53.25;95102.50;5048617;28;20076;-51
2023/03/11 03:40:23;;;;;;;0.85;0.70;;;;;;;6.77;53.76;95117.72;5048617;28;20087;-46
2023/03/11 03:42:52;;;;;;;0.50;0.50;;;;;;;6.96;54.18;95108.84;5048967;28;20096;-49
2023/03/11 03:45:20;;;;;;;0.68;0.65;;;;;;;6.70;54.60;95124.56;5047832;28;20081;-47
2023/03/11 03:47:48;;;;;;;0.73;0.70;;;;;;;6.69;55.47;95136.03;5048601;28;20088;-52
2023/03/11 03:50:17;;;;;;;0.70;0.70;;;;;;;6.68;55.14;95131.78;5048474;28;20088;-51
2023/03/11 03:52:47;;;;;;;0.55;0.55;;;;;;;7.11;54.94;95136.94;5048130;28;20522;-46
2023/03/11 03:55:15;;;;;;;0.47;0.47;;;;;;;6.90;55.22;95142.53;5047764;28;20072;-49
2023/03/11 03:57:44;;;;;;;0.85;0.60;;;;;;;6.65;54.87;95133.72;5047782;28;20072;-51
2023/03/11 04:00:13;;;;;;;0.70;0.60;;;;;;;6.94;55.45;95137.00;5050046;28;20068;-51
2023/03/11 04:02:41;;;;;;;1.98;1.02;;;;;;;6.70;55.66;95140.28;5050287;28;20076;-52
2023/03/11 04:05:10;;;;;;;1.05;0.57;;;;;;;6.63;55.81;95129.59;5050745;28;20500;-52
2023/03/11 04:07:38;;;;;;;1.55;0.60;;;;;;;6.90;56.15;95128.63;5046080;28;20073;-50
2023/03/11 04:10:09;;;;;;;0.95;0.70;;;;;;;6.66;55.62;95132.72;5045882;28;20077;-49
2023/03/11 04:12:38;;;;;;;0.82;0.70;;;;;;;6.54;55.21;95149.69;5049350;28;20080;-50
2023/03/11 04:15:08;;;;;;;0.70;0.70;;;;;;;6.45;56.38;95141.91;5053010;28;20068;-50
2023/03/11 04:17:36;;;;;;;1.25;0.82;;;;;;;6.59;55.48;95162.31;5047510;28;20061;-46
2023/03/11 04:20:07;;;;;;;1.15;0.80;;;;;;;6.56;55.42;95163.41;5045524;28;20056;-51
2023/03/11 04:22:35;;;;;;;;;;;;;;;6.65;56.02;95162.53;5046636;28;20060;-48
2023/03/11 04:25:04;;;;;;;0.60;0.60;;;;;;;6.74;55.24;95159.94;5047622;28;19956;-52
2023/03/11 04:27:33;;;;;;;0.82;0.70;;;;;;;6.86;56.38;95156.13;5045625;28;20081;-50
2023/03/11 04:30:02;;;;;;;1.30;0.70;;;;;;;6.60;56.00;95170.00;5048330;28;20096;-48
2023/03/11 04:32:30;;;;;;;1.33;0.63;;;;;;;6.85;56.18;95172.81;5048755;28;20099;-48
2023/03/11 04:34:58;;;;;;;0.85;0.60;;;;;;;6.76;55.89;95181.59;5047798;28;20056;-51
2023/03/11 04:37:28;;;;;;;0.70;0.70;;;;;;;6.97;55.08;95174.19;5047048;28;20089;-49
2023/03/11 04:39:56;;;;;;;0.70;0.70;;;;;;;6.72;54.99;95173.22;5048225;28;20068;-49
2023/03/11 04:42:24;;;;;;;0.70;0.60;;;;;;;6.83;55.33;95172.13;5047686;28;20104;-47
2023/03/11 04:44:54;;;;;;;1.45;0.80;;;;;;;6.63;56.34;95187.22;5047202;28;20079;-46
2023/03/11 04:47:22;;;;;;;0.77;0.70;;;;;;;6.83;56.52;95186.06;5047611;28;20092;-46
2023/03/11 04:49:51;;;;;;;0.95;0.90;;;;;;;6.70;57.32;95183.00;5048574;28;21044;-46
2023/03/11 04:52:19;;;;;;;1.63;1.00;;;;;;;6.77;58.08;95188.47;5044655;28;20068;-49
2023/03/11 04:54:47;;;;;;;0.88;0.88;;;;;;;6.55;59.64;95189.78;5047584;28;20068;-47
2023/03/11 04:57:16;;;;;;;1.02;0.93;;;;;;;7.05;57.51;95182.09;5047374;28;20080;-49
2023/03/11 04:59:44;;;;;;;0.90;0.57;;;;;;;7.04;59.09;95198.00;5069838;28;20060;-50
2023/03/11 05:02:14;;;;;;;1.02;0.73;;;;;;;6.42;60.14;95211.91;5046170;28;20553;-47
2023/03/11 05:04:42;;;;;;;1.03;0.93;;;;;;;6.66;62.34;95218.34;5071537;28;20076;-52
2023/03/11 05:07:10;;;;;;;1.67;0.75;;;;;;;6.85;61.34;95217.38;5045696;28;20502;-48
2023/03/11 05:09:39;;;;;;;0.90;0.80;;;;;;;6.60;61.51;95226.78;5047884;28;20080;-49
2023/03/11 05:12:08;;;;;;;0.77;0.70;;;;;;;6.59;61.66;95231.22;5046869;28;20065;-51
2023/03/11 05:14:37;;;;;;;0.50;0.50;;;;;;;6.84;60.75;95220.94;5047633;28;20072;-56
2023/03/11 05:17:05;;;;;;;1.65;1.00;;;;;;;6.83;60.48;95232.41;5042724;28;20504;-49
2023/03/11 05:19:35;;;;;;;0.95;0.50;;;;;;;6.84;60.62;95224.38;5047082;28;20064;-48
2023/03/11 05:22:04;;;;;;;0.60;0.60;;;;;;;6.54;60.44;95230.03;5042533;28;20119;-51
2023/03/11 05:24:33;;;;;;;0.60;0.60;;;;;;;6.54;60.10;95235.28;5044737;28;20495;-47
2023/03/11 05:27:01;;;;;;;0.63;0.63;;;;;;;6.44;58.71;95240.59;5043686;28;20474;-49
2023/03/11 05:29:30;;;;;;;0.60;0.60;;;;;;;6.30;59.30;95244.53;5045458;28;20096;-50
2023/03/11 05:31:58;;;;;;;0.70;0.70;;;;;;;6.96;58.38;95238.06;5040833;28;20044;-46
2023/03/11 05:34:27;;;;;;;0.73;0.70;;;;;;;6.82;58.16;95239.44;5043763;28;20111;-50
2023/03/11 05:36:56;;;;;;;1.55;0.95;;;;;;;6.74;58.04;95235.91;5039417;28;20061;-48
2023/03/11 05:39:25;;;;;;;1.77;0.93;;;;;;;6.59;58.55;95246.94;5046817;28;20069;-47
2023/03/11 05:41:55;;;;;;;1.17;0.73;;;;;;;6.77;59.07;95246.09;5047061;28;20494;-45
2023/03/11 05:44:23;;;;;;;0.95;0.80;;;;;;;6.53;58.99;95254.56;5043261;28;20087;-48
2023/03/11 05:46:51;;;;;;;1.88;0.82;;;;;;;6.53;59.38;95260.63;5044809;28;20205;-48
2023/03/11 05:49:21;;;;;;;1.27;0.90;;;;;;;6.62;59.06;95258.91;5039258;28;20088;-49
2023/03/11 05:51:49;;;;;;;1.48;0.80;;;;;;;6.67;58.02;95264.50;5037639;28;20132;-50
2023/03/11 05:54:19;;;;;;;0.60;0.60;;;;;;;6.80;57.74;95257.09;5040444;28;20127;-52
2023/03/11 05:56:48;;;;;;;0.43;0.43;;;;;;;6.88;57.38;95264.19;5048954;28;20041;-55
2023/03/11 05:59:17;;;;;;;0.63;0.57;;;;;;;7.17;56.21;95258.69;5049772;28;20494;-50
2023/03/11 06:01:45;;;;;;;1.00;0.90;;;;;;;6.57;55.91;95256.75;5046270;28;20057;-48
2023/03/11 06:04:14;;;;;;;0.98;0.80;;;;;;;6.60;57.01;95264.28;5040364;28;20079;-49
2023/03/11 06:06:42;;;;;;;0.65;0.65;;;;;;;7.13;57.55;95268.66;5042232;28;20069;-49
2023/03/11 06:09:13;;;;;;;1.63;0.82;;;;;;;6.94;54.86;95262.78;5041054;28;20072;-51
2023/03/11 06:11:42;;;;;;;0.80;0.65;;;;;;;6.95;54.95;95265.28;5042897;28;20088;-53
2023/03/11 06:14:12;;;;;;;0.82;0.52;;;;;;;7.06;53.48;95265.03;5043852;28;20080;-51
2023/03/11 06:16:41;;;;;;;0.60;0.60;;;;;;;6.89;54.23;95256.19;5044636;28;20088;-50
2023/03/11 06:19:10;;;;;;;0.60;0.60;;;;;;;6.74;55.88;95280.47;5044995;28;20080;-51
2023/03/11 06:21:38;;;;;;;0.75;0.75;;;;;;;7.04;56.67;95280.06;5045334;28;20159;-48
2023/03/11 06:24:07;;;;;;;2.90;0.60;;;;;;;6.67;55.68;95280.22;5047137;28;20111;-49
2023/03/11 06:26:35;;;;;;;1.23;0.70;;;;;;;6.61;54.09;95289.53;5046892;28;20065;-46
2023/03/11 06:29:05;;;;;;;0.50;0.50;;;;;;;7.04;54.33;95290.53;5046862;28;20490;-49
2023/03/11 06:31:33;;;;;;;2.60;0.60;;;;;;;6.83;52.94;95297.91;5046823;28;20435;-52
2023/03/11 06:34:01;;;;;;;0.40;0.40;;;;;;;6.96;54.57;95297.53;5046375;28;20415;-50
2023/03/11 06:36:30;;;;;;;0.60;0.47;;;;;;;6.87;54.44;95297.44;5040327;28;20091;-51
2023/03/11 06:38:58;;;;;;;1.65;0.80;;;;;;;6.59;55.13;95299.31;5043662;28;20159;-50
2023/03/11 06:41:26;;;;;;;1.30;0.60;;;;;;;6.88;54.43;95296.50;5047611;28;20471;-51
2023/03/11 06:43:55;;;;;;;0.40;0.40;;;;;;;7.41;54.26;95299.19;5046743;28;20733;-53
2023/03/11 06:46:24;;;;;;;1.90;0.85;;;;;;;7.03;53.86;95296.78;5048215;28;20091;-49
2023/03/11 06:48:52;;;;;;;0.73;0.63;;;;;;;7.02;53.41;95316.09;5049867;28;20072;-51
2023/03/11 06:51:21;;;;;;;0.38;0.38;;;;;;;6.94;53.84;95309.94;5044861;28;20087;-50
2023/03/11 06:53:51;;;;;;;1.08;0.82;;;;;;;6.96;52.45;95315.88;5041833;28;20072;-51
2023/03/11 06:56:20;;;;;;;0.40;0.40;;;;;;;6.47;54.69;95326.69;5044827;28;20088;-54
2023/03/11 06:58:49;;;;;;;1.08;0.50;;;;;;;6.81;54.34;95326.88;5047429;28;20080;-47
2023/03/11 07:01:19;;;;;;;0.73;0.60;;;;;;;7.02;53.16;95344.09;5041571;28;20087;-52
2023/03/11 07:03:49;;;;;;;1.05;0.60;;;;;;;6.92;53.23;95338.94;5044336;28;20549;-48
2023/03/11 07:06:19;;;;;;;0.40;0.40;;;;;;;7.02;52.60;95342.31;5043643;28;20533;-46
2023/03/11 07:08:49;;;;;;;1.88;0.60;;;;;;;6.64;53.60;95341.63;5046600;28;20538;-49
2023/03/11 07:11:19;;;;;;;0.63;0.57;;;;;;;6.60;53.11;95342.03;5048305;28;20076;-55
2023/03/11 07:13:47;;;;;;;0.60;0.50;;;;;;;6.50;55.11;95349.13;5048792;28;20084;-49
2023/03/11 07:16:17;;;;;;;0.90;0.60;;;;;;;6.61;53.53;95355.00;5048929;28;20510;-51
2023/03/11 07:18:48;;;;;;;1.20;0.70;;;;;;;6.80;54.62;95358.47;5043205;28;20088;-53
2023/03/11 07:21:18;;;;;;;0.75;0.70;;;;;;;7.01;54.20;95360.78;5046356;28;20099;-54
2023/03/11 07:23:48;;;;;;;1.65;0.55;;;;;;;7.03;52.74;95375.41;5048814;28;20068;-48
2023/03/11 07:26:17;;;;;;;0.65;0.60;;;;;;;6.94;54.28;95380.72;5048654;28;20084;-54
2023/03/11 07:28:46;;;;;;;0.50;0.50;;;;;;;7.23;51.83;95391.00;5048887;28;20076;-52
2023/03/11 07:31:16;;;;;;;1.15;0.70;;;;;;;6.80;52.45;95387.28;5049309;28;20482;-52
2023/03/11 07:33:44;;;;;;;0.95;0.65;;;;;;;6.48;53.66;95401.66;5043247;28;20084;-48
2023/03/11 07:36:16;;;;;;;1.63;0.95;;;;;;;6.61;53.38;95410.00;5048934;28;20076;-54
2023/03/11 07:38:44;;;;;;;0.88;0.60;;;;;;;6.96;53.11;95415.47;5048631;28;20478;-51
2023/03/11 07:41:13;;;;;;;0.50;0.50;;;;;;;7.17;52.95;95417.81;5048305;28;20077;-54
2023/03/11 07:43:43;;;;;;;1.60;0.80;;;;;;;6.70;52.37;95415.34;5044304;28;20079;-49
2023/03/11 07:46:12;;;;;;;1.65;0.70;;;;;;;6.58;53.99;95417.34;5045073;28;20107;-54
2023/03/11 07:48:41;;;;;;;1.98;0.95;;;;;;;7.48;52.87;95416.44;5048258;28;20080;-49
2023/03/11 07:51:11;;;;;;;0.98;0.65;;;;;;;6.84;52.34;95417.44;5048314;28;20266;-54
2023/03/11 07:53:41;;;;;;;0.82;0.70;;;;;;;7.36;51.29;95415.84;5047711;28;20084;-52
2023/03/11 07:56:10;;;;;;;0.63;0.63;;;;;;;7.35;52.89;95413.38;5050787;28;20084;-48
2023/03/11 07:58:38;;;;;;;0.63;0.50;;;;;;;7.16;52.19;95410.88;5048062;28;20460;-49
2023/03/11 08:01:09;;;;;;;1.50;0.80;;;;;;;7.91;52.04;95406.09;5047083;28;20080;-51
2023/03/11 08:03:38;;;;;;;0.60;0.60;;;;;;;8.51;51.79;95404.31;5048071;28;20492;-47
2023/03/11 08:06:12;;;;;;;1.17;0.60;;;;;;;7.80;51.69;95426.34;5048158;28;20089;-51
2023/03/11 08:08:42;;;;;;;2.90;0.98;;;;;;;7.75;50.01;95426.00;5047775;28;20083;-51
2023/03/11 08:11:11;;;;;;;2.90;0.83;;;;;;;8.20;50.27;95416.28;5048380;28;20088;-52
2023/03/11 08:13:40;;;;;;;0.95;0.50;;;;;;;7.68;48.50;95417.09;5047677;28;20463;-49
2023/03/11 08:16:09;;;;;;;3.05;1.02;;;;;;;7.81;49.71;95414.91;5052999;28;20095;-48
2023/03/11 08:18:38;;;;;;;3.40;0.75;;;;;;;7.75;47.78;95417.31;5047795;28;20530;-48
2023/03/11 08:21:06;;;;;;;1.15;0.60;;;;;;;8.39;48.03;95405.56;5048892;28;20072;-51
2023/03/11 08:23:35;;;;;;;3.30;0.70;;;;;;;7.48;47.62;95403.31;5048503;28;20080;-48
2023/03/11 08:26:05;;;;;;;2.85;0.80;;;;;;;7.90;47.79;95414.94;5047815;28;20625;-54
2023/03/11 08:28:34;;;;;;;1.38;0.75;;;;;;;7.95;47.31;95417.91;5046723;28;20085;-49
2023/03/11 08:31:02;;;;;;;0.75;0.63;;;;;;;7.53;47.62;95434.34;5047687;28;20477;-55
2023/03/11 08:33:30;;;;;;;3.45;0.70;;;;;;;7.41;48.23;95438.19;5046010;28;20072;-49
2023/03/11 08:35:59;;;;;;;1.95;0.90;;;;;;;7.64;47.62;95438.53;5047477;28;20574;-50
2023/03/11 08:38:27;;;;;;;0.77;0.77;;;;;;;7.91;47.14;95437.59;5047839;28;20073;-50
2023/03/11 08:40:56;;;;;;;1.25;0.50;;;;;;;7.80;47.96;95444.72;5048141;28;20114;-51
2023/03/11 08:43:25;;;;;;;1.38;0.77;;;;;;;8.48;47.14;95430.91;5047213;28;20087;-49
2023/03/11 08:45:53;;;;;;;0.47;0.47;;;;;;;8.74;48.02;95437.91;5047898;28;20080;-52
2023/03/11 08:48:24;;;;;;;0.77;0.60;;;;;;;8.18;49.97;95447.94;5048217;28;20084;-46
2023/03/11 08:50:52;;;;;;;0.40;0.40;;;;;;;8.56;47.42;95438.00;5047867;28;20076;-54
2023/03/11 08:53:22;;;;;;;1.60;0.70;;;;;;;7.89;48.21;95444.81;5047562;28;20545;-48
2023/03/11 08:55:50;;;;;;;2.25;0.68;;;;;;;7.74;47.13;95447.13;5049218;28;20079;-52
2023/03/11 08:58:19;;;;;;;2.92;0.80;;;;;;;7.94;47.64;95445.16;5047788;28;20092;-54
2023/03/11 09:00:49;;;;;;;0.82;0.60;;;;;;;8.13;46.10;95447.59;5043240;28;20518;-50
2023/03/11 09:03:17;;;;;;;1.88;0.75;;;;;;;8.01;46.84;95451.44;5041541;28;20084;-51
2023/03/11 09:05:45;;;;;;;0.82;0.50;;;;;;;8.41;47.46;95453.53;5047349;28;20080;-53
2023/03/11 09:08:13;;;;;;;0.93;0.60;;;;;;;8.43;46.44;95456.00;5043059;28;20080;-51
2023/03/11 09:10:42;;;;;;;1.05;0.70;;;;;;;7.91;45.55;95472.53;5049279;28;20088;-50
2023/03/11 09:13:10;;;;;;;0.85;0.60;;;;;;;8.68;47.17;95451.69;5051810;28;20084;-47
2023/03/11 09:15:38;;;;;;;0.88;0.70;;;;;;;9.62;46.48;95454.06;5050767;28;20087;-52
2023/03/11 09:18:12;;;;;;;1.13;0.75;;;;;;;8.39;46.17;95473.06;5051922;28;20095;-49
2023/03/11 09:20:40;;;;;;;1.33;0.60;;;;;;;9.55;44.97;95455.72;5051309;28;20467;-47
2023/03/11 09:23:09;;;;;;;1.33;0.70;;;;;;;10.31;44.40;95446.66;5051528;28;20108;-49
2023/03/11 09:25:38;;;;;;;0.80;0.55;;;;;;;10.13;44.17;95451.28;5050892;28;20076;-51
2023/03/11 09:28:06;;;;;;;1.35;0.50;;;;;;;9.63;45.26;95457.53;5051663;28;20084;-47
2023/03/11 09:30:35;;;;;;;0.77;0.55;;;;;;;10.01;44.05;95460.50;5051008;28;20092;-48
2023/03/11 09:33:03;;;;;;;0.50;0.50;;;;;;;10.02;46.10;95457.72;5051161;28;20091;-48
2023/03/11 09:35:33;;;;;;;0.75;0.47;;;;;;;10.59;43.56;95462.88;5050784;28;20532;-51
2023/03/11 09:38:01;;;;;;;0.90;0.70;;;;;;;9.45;45.98;95455.84;5050890;28;20076;-49
2023/03/11 09:40:44;;;;;;;3.90;1.05;;;;;;;9.75;43.83;95464.13;5050946;28;20099;-52
2023/03/11 09:43:18;;;;;;;0.82;0.50;;;;;;;9.63;44.88;95463.59;5049658;28;20081;-51
2023/03/11 09:45:51;;;;;;;0.65;0.60;;;;;;;9.69;43.11;95459.50;5050469;28;20707;-50
2023/03/11 09:48:24;;;;;;;0.80;0.52;;;;;;;9.67;43.37;95461.47;5050942;28;20085;-49
2023/03/11 09:50:58;;;;;;;0.70;0.60;;;;;;;10.21;44.41;95467.06;5046728;28;20088;-49
2023/03/11 09:53:32;;;;;;;1.73;0.90;;;;;;;8.96;45.90;95470.69;5050686;28;20088;-51
2023/03/11 09:56:04;;;;;;;1.02;0.52;;;;;;;10.34;46.19;95463.94;5051127;28;20080;-49
2023/03/11 09:58:37;;;;;;;1.60;0.80;;;;;;;9.98;45.04;95477.47;5048346;28;20467;-49
2023/03/11 10:01:14;;;;;;;3.20;0.80;;;;;;;9.67;44.59;95483.38;5051143;28;20101;-52
2023/03/11 10:03:43;;;;;;;2.22;0.60;;;;;;;8.64;46.07;95497.69;5050539;28;20068;-47
2023/03/11 10:06:18;;;;;;;1.20;0.90;;;;;;;9.29;45.46;95500.56;5050732;28;20092;-54
2023/03/11 10:08:52;;;;;;;1.70;0.77;;;;;;;9.50;44.21;95500.13;5049664;28;20084;-52
2023/03/11 10:11:29;;;;;;;2.38;1.40;;;;;;;9.39;46.17;95497.78;5050720;28;20096;-52
2023/03/11 10:14:04;;;;;;;1.35;0.80;;;;;;;9.79;43.01;95498.84;5050462;28;20561;-48
2023/03/11 10:16:38;;;;;;;1.20;0.65;;;;;;;9.55;43.98;95497.00;5050203;28;20084;-52
2023/03/11 10:19:11;;;;;;;0.95;0.70;;;;;;;9.21;45.20;95501.34;5050727;28;20084;-49
2023/03/11 10:21:47;;;;;;;1.10;0.70;;;;;;;8.90;44.81;95510.75;5048935;28;20079;-47
2023/03/11 10:24:33;;;;;;;1.20;0.70;;;;;;;9.33;42.96;95509.78;5049861;28;20521;-50
2023/03/11 10:27:03;;;;;;;1.10;0.70;;;;;;;10.07;45.33;95504.59;5050126;28;20080;-49
2023/03/11 10:29:38;;;;;;;2.80;0.90;;;;;;;10.13;45.26;95504.78;5049942;28;20088;-48
2023/03/11 10:32:12;;;;;;;0.95;0.75;;;;;;;9.36;44.84;95520.00;5050666;28;20542;-48
2023/03/11 10:34:44;;;;;;;2.28;0.85;;;;;;;9.44;43.31;95517.38;5049763;28;20093;-46
2023/03/11 10:37:17;;;;;;;0.93;0.80;;;;;;;9.40;45.20;95523.94;5050333;28;20087;-48
2023/03/11 10:39:46;;;;;;;2.10;0.80;;;;;;;9.41;45.36;95522.13;5048803;28;20076;-45
2023/03/11 10:42:17;;;;;;;0.73;0.63;;;;;;;9.40;46.44;95516.06;5049459;28;20553;-51
2023/03/11 10:44:46;;;;;;;2.65;1.35;;;;;;;8.62;46.41;95526.72;5049487;28;20076;-51
2023/03/11 10:47:17;;;;;;;2.28;1.00;;;;;;;9.11;47.13;95519.06;5049860;28;20089;-49
2023/03/11 10:49:46;;;;;;;1.92;1.00;;;;;;;9.48;43.87;95516.06;5048454;28;20077;-52
2023/03/11 10:52:16;;;;;;;3.85;1.00;;;;;;;10.10;44.61;95517.44;5049062;28;20081;-52
2023/03/11 10:54:46;;;;;;;1.20;0.80;;;;;;;9.55;45.05;95516.25;5049737;28;20088;-52
2023/03/11 10:57:22;;;;;;;;;;;;;;;9.23;43.95;95523.06;5049744;28;20076;-48
2023/03/11 10:59:52;;;;;;;0.82;0.68;;;;;;;9.40;45.04;95526.56;5049194;28;19964;-50
2023/03/11 11:02:25;;;;;;;0.75;0.65;;;;;;;9.90;43.95;95517.75;5049185;28;20084;-51
2023/03/11 11:05:23;;;;;;;0.93;0.80;;;;;;;10.49;44.72;95512.34;5045901;28;20553;-48
2023/03/11 11:08:03;;;;;;;1.88;1.13;;;;;;;9.73;45.82;95519.56;5049145;28;20092;-48
2023/03/11 11:10:32;;;;;;;1.35;0.93;;;;;;;10.27;46.20;95521.75;5043716;28;20088;-48
2023/03/11 11:13:02;;;;;;;4.78;0.75;;;;;;;10.27;42.46;95520.94;5049221;28;20091;-47
2023/03/11 11:15:32;;;;;;;1.55;1.13;;;;;;;9.22;46.20;95544.25;5048568;28;20095;-53
2023/03/11 11:18:03;;;;;;;1.40;1.00;;;;;;;9.36;45.03;95546.31;5047668;28;20096;-55
2023/03/11 11:20:32;;;;;;;1.17;0.65;;;;;;;9.55;45.16;95533.84;5049092;28;20087;-51
2023/03/11 11:23:03;;;;;;;0.95;0.85;;;;;;;9.71;44.82;95524.19;5048940;28;20076;-45
2023/03/11 11:25:33;;;;;;;1.25;0.77;;;;;;;10.18;44.94;95528.78;5049113;28;20123;-55
2023/03/11 11:28:04;;;;;;;0.70;0.68;;;;;;;10.12;44.42;95524.22;5050417;28;20085;-53
2023/03/11 11:30:32;;;;;;;;;;;;;;;10.47;44.60;95526.69;5049654;28;20460;-52
2023/03/11 11:33:20;;;;;;;4.13;1.13;;;;;;;9.79;44.46;95518.09;5048481;28;19963;-52
2023/03/11 11:35:50;;;;;;;1.30;0.80;;;;;;;10.68;45.39;95514.63;5044900;28;20476;-52
2023/03/11 11:38:22;;;;;;;0.85;0.70;;;;;;;11.05;41.61;95507.09;5048880;28;20534;-49
2023/03/11 11:40:52;;;;;;;0.63;0.52;;;;;;;10.20;43.96;95512.84;5048455;28;20691;-49
2023/03/11 11:43:36;;;;;;;2.95;0.73;;;;;;;10.50;43.09;95516.63;5048437;28;20534;-51
2023/03/11 11:46:07;;;;;;;2.80;1.55;;;;;;;9.89;43.92;95517.94;5047385;28;20111;-51
2023/03/11 11:48:41;;;;;;;1.38;0.90;;;;;;;11.33;43.86;95508.28;5047975;28;20076;-51
2023/03/11 11:51:15;;;;;;;2.28;0.90;;;;;;;10.51;42.36;95512.19;5048647;28;20467;-50
2023/03/11 11:53:48;;;;;;;0.52;0.52;;;;;;;10.27;41.13;95513.84;5048320;28;20483;-51